createdAt,value
2023-02-01T00:01:35.392Z,1.30
2023-02-01T00:04:03.756Z,1.52
2023-02-01T00:06:32.043Z,1.50
2023-02-01T00:09:03.388Z,1.58
2023-02-01T00:11:33.050Z,1.55
2023-02-01T00:14:01.337Z,1.45
2023-02-01T00:16:30.498Z,2.10
2023-02-01T00:19:00.416Z,1.80
2023-02-01T00:21:31.161Z,1.80
2023-02-01T00:23:59.553Z,1.15
2023-02-01T00:26:29.880Z,1.80
2023-02-01T00:28:59.650Z,1.25
2023-02-01T00:31:29.520Z,1.95
2023-02-01T00:33:58.051Z,1.90
2023-02-01T00:36:32.435Z,1.23
2023-02-01T00:39:00.743Z,1.15
2023-02-01T00:41:31.216Z,1.63
2023-02-01T00:44:00.844Z,1.58
2023-02-01T00:46:29.267Z,1.55
2023-02-01T00:48:57.583Z,1.40
2023-02-01T00:51:27.094Z,1.50
2023-02-01T00:53:55.506Z,2.00
2023-02-01T00:56:23.882Z,1.60
2023-02-01T00:58:52.193Z,1.85
2023-02-01T01:01:23.038Z,1.73
2023-02-01T01:03:52.581Z,1.73
2023-02-01T01:06:22.628Z,1.42
2023-02-01T01:08:52.820Z,1.27
2023-02-01T01:11:23.325Z,1.50
2023-02-01T01:13:52.752Z,1.60
2023-02-01T01:16:23.832Z,1.20
2023-02-01T01:18:52.194Z,1.60
2023-02-01T01:21:20.592Z,1.35
2023-02-01T01:23:49.241Z,1.60
2023-02-01T01:26:19.144Z,1.50
2023-02-01T01:28:47.571Z,1.15
2023-02-01T01:31:16.847Z,1.58
2023-02-01T01:33:51.669Z,1.70
2023-02-01T01:36:20.113Z,1.25
2023-02-01T01:38:48.473Z,1.33
2023-02-01T01:41:18.103Z,1.60
2023-02-01T01:43:54.782Z,1.05
2023-02-01T01:46:24.059Z,1.27
2023-02-01T01:48:56.239Z,1.83
2023-02-01T01:51:28.031Z,1.80
2023-02-01T01:54:01.524Z,1.52
2023-02-01T01:56:29.901Z,1.50
2023-02-01T01:58:58.265Z,1.25
2023-02-01T02:01:26.590Z,1.75
2023-02-01T02:03:57.589Z,2.10
2023-02-01T02:06:34.019Z,1.42
2023-02-01T02:09:02.330Z,1.67
2023-02-01T02:11:30.618Z,1.83
2023-02-01T02:13:58.977Z,1.58
2023-02-01T02:16:45.284Z,1.55
2023-02-01T02:19:32.952Z,1.45
2023-02-01T02:24:59.462Z,1.70
2023-02-01T02:30:35.623Z,1.70
2023-02-01T02:33:40.960Z,1.67
2023-02-01T02:36:10.868Z,1.77
2023-02-01T02:38:42.905Z,1.52
2023-02-01T02:41:35.065Z,1.77
2023-02-01T02:44:23.008Z,1.60
2023-02-01T02:47:08.917Z,1.70
2023-02-01T02:49:44.394Z,1.60
2023-02-01T02:52:32.618Z,1.95
2023-02-01T02:55:00.930Z,1.73
2023-02-01T02:57:48.853Z,1.90
2023-02-01T03:00:35.554Z,2.00
2023-02-01T03:03:21.647Z,1.73
2023-02-01T03:05:51.667Z,2.00
2023-02-01T03:08:26.387Z,1.60
2023-02-01T03:11:09.057Z,1.90
2023-02-01T03:13:39.386Z,1.63
2023-02-01T03:16:09.867Z,1.83
2023-02-01T03:18:41.052Z,1.88
2023-02-01T03:21:12.609Z,2.00
2023-02-01T03:23:40.949Z,2.05
2023-02-01T03:26:21.370Z,2.03
2023-02-01T03:28:54.598Z,1.58
2023-02-01T03:31:23.024Z,2.05
2023-02-01T03:33:51.380Z,1.58
2023-02-01T03:36:24.819Z,1.63
2023-02-01T03:38:54.359Z,1.77
2023-02-01T03:41:29.079Z,1.90
2023-02-01T03:43:58.985Z,1.85
2023-02-01T03:46:33.566Z,1.80
2023-02-01T03:49:03.861Z,1.67
2023-02-01T03:51:33.605Z,2.28
2023-02-01T03:54:01.959Z,1.65
2023-02-01T03:56:30.248Z,2.00
2023-02-01T03:59:01.416Z,2.00
2023-02-01T04:01:30.632Z,1.55
2023-02-01T04:03:59.142Z,2.03
2023-02-01T04:06:27.509Z,1.92
2023-02-01T04:08:59.960Z,1.55
2023-02-01T04:11:30.103Z,1.50
2023-02-01T04:13:58.521Z,1.83
2023-02-01T04:16:26.909Z,2.05
2023-02-01T04:18:55.288Z,2.42
2023-02-01T04:21:23.598Z,1.88
2023-02-01T04:23:54.562Z,1.73
2023-02-01T04:26:25.957Z,1.73
2023-02-01T04:28:54.647Z,1.63
2023-02-01T04:31:26.432Z,1.90
2023-02-01T04:33:55.390Z,1.92
2023-02-01T04:36:23.849Z,1.75
2023-02-01T04:38:52.328Z,1.50
2023-02-01T04:41:20.854Z,1.90
2023-02-01T04:43:50.821Z,1.73
2023-02-01T04:46:19.166Z,2.15
2023-02-01T04:48:47.488Z,2.00
2023-02-01T04:51:16.061Z,1.42
2023-02-01T04:53:44.450Z,1.58
2023-02-01T04:56:15.630Z,2.05
2023-02-01T04:58:44.052Z,1.90
2023-02-01T05:01:13.742Z,1.77
2023-02-01T05:03:42.115Z,1.98
2023-02-01T05:06:13.554Z,1.67
2023-02-01T05:08:45.135Z,1.88
2023-02-01T05:11:33.821Z,2.08
2023-02-01T05:14:02.549Z,1.92
2023-02-01T05:16:32.484Z,1.70
2023-02-01T05:19:00.829Z,2.15
2023-02-01T05:21:29.194Z,1.40
2023-02-01T05:24:13.973Z,1.60
2023-02-01T05:26:42.487Z,1.70
2023-02-01T05:29:11.327Z,1.70
2023-02-01T05:31:41.441Z,1.88
2023-02-01T05:34:09.795Z,1.67
2023-02-01T05:36:40.884Z,2.00
2023-02-01T05:39:20.240Z,1.75
2023-02-01T05:41:48.543Z,1.92
2023-02-01T05:44:17.043Z,1.80
2023-02-01T05:46:48.522Z,1.83
2023-02-01T05:49:18.168Z,1.50
2023-02-01T05:51:46.513Z,2.08
2023-02-01T05:54:15.069Z,1.67
2023-02-01T05:56:43.381Z,1.70
2023-02-01T05:59:11.787Z,1.58
2023-02-01T06:01:42.866Z,2.05
2023-02-01T06:04:12.615Z,1.95
2023-02-01T06:06:41.744Z,1.95
2023-02-01T06:09:10.055Z,1.70
2023-02-01T06:11:38.442Z,1.98
2023-02-01T06:14:08.851Z,1.50
2023-02-01T06:16:37.217Z,2.10
2023-02-01T06:19:05.546Z,1.83
2023-02-01T06:21:35.223Z,1.50
2023-02-01T06:24:03.517Z,1.60
2023-02-01T06:26:32.056Z,1.48
2023-02-01T06:29:00.358Z,1.70
2023-02-01T06:31:29.043Z,1.92
2023-02-01T06:33:57.519Z,1.70
2023-02-01T06:36:25.869Z,1.85
2023-02-01T06:38:57.487Z,1.42
2023-02-01T06:41:29.257Z,1.70
2023-02-01T06:43:57.816Z,1.40
2023-02-01T06:46:26.197Z,1.60
2023-02-01T06:48:55.308Z,1.52
2023-02-01T06:51:24.668Z,1.50
2023-02-01T06:53:52.997Z,2.10
2023-02-01T06:56:25.568Z,1.70
2023-02-01T06:58:58.750Z,1.38
2023-02-01T07:01:27.075Z,1.63
2023-02-01T07:03:55.386Z,2.25
2023-02-01T07:06:23.748Z,1.90
2023-02-01T07:08:52.155Z,1.30
2023-02-01T07:11:20.975Z,1.30
2023-02-01T07:13:50.734Z,1.48
2023-02-01T07:16:22.520Z,1.77
2023-02-01T07:18:51.806Z,1.73
2023-02-01T07:21:20.387Z,2.10
2023-02-01T07:23:48.678Z,2.15
2023-02-01T07:26:17.456Z,4.40
2023-02-01T07:28:46.009Z,5.38
2023-02-01T07:31:20.061Z,5.05
2023-02-01T07:33:48.445Z,5.57
2023-02-01T07:36:18.496Z,4.82
2023-02-01T07:38:50.705Z,5.45
2023-02-01T07:41:19.336Z,4.95
2023-02-01T07:43:47.991Z,5.63
2023-02-01T07:46:20.544Z,5.03
2023-02-01T07:48:48.938Z,5.35
2023-02-01T07:51:17.950Z,5.75
2023-02-01T07:53:46.476Z,5.72
2023-02-01T07:56:15.956Z,4.82
2023-02-01T07:58:44.473Z,5.65
2023-02-01T08:01:22.376Z,4.22
2023-02-01T08:03:52.810Z,4.95
2023-02-01T08:06:24.923Z,5.10
2023-02-01T08:08:56.451Z,4.82
2023-02-01T08:11:24.950Z,4.63
2023-02-01T08:13:54.246Z,4.00
2023-02-01T08:16:23.009Z,4.43
2023-02-01T08:18:52.748Z,3.75
2023-02-01T08:21:22.985Z,4.53
2023-02-01T08:23:51.393Z,3.58
2023-02-01T08:26:21.147Z,3.03
2023-02-01T08:28:51.377Z,3.47
2023-02-01T08:31:21.171Z,4.13
2023-02-01T08:33:52.686Z,3.22
2023-02-01T08:36:21.180Z,3.42
2023-02-01T08:38:49.502Z,3.22
2023-02-01T08:41:18.539Z,3.50
2023-02-01T08:43:46.892Z,2.65
2023-02-01T08:46:15.410Z,2.67
2023-02-01T08:48:46.585Z,3.00
2023-02-01T08:51:17.202Z,2.78
2023-02-01T08:53:45.667Z,2.67
2023-02-01T08:56:14.810Z,2.60
2023-02-01T08:58:45.280Z,2.30
2023-02-01T09:01:16.205Z,2.67
2023-02-01T09:03:44.699Z,2.50
2023-02-01T09:06:14.424Z,2.33
2023-02-01T09:08:44.231Z,3.08
2023-02-01T09:11:14.069Z,2.45
2023-02-01T09:13:42.851Z,2.47
2023-02-01T09:16:11.194Z,2.67
2023-02-01T09:18:46.186Z,1.92
2023-02-01T09:21:24.846Z,2.60
2023-02-01T09:23:54.831Z,2.22
2023-02-01T09:26:31.407Z,2.35
2023-02-01T09:31:35.905Z,1.92
2023-02-01T09:34:04.256Z,2.30
2023-02-01T09:36:32.640Z,2.40
2023-02-01T09:39:02.647Z,2.00
2023-02-01T09:41:45.232Z,2.10
2023-02-01T09:44:21.353Z,2.30
2023-02-01T09:46:51.907Z,2.13
2023-02-01T09:49:23.160Z,2.35
2023-02-01T09:51:52.033Z,2.20
2023-02-01T09:54:22.311Z,1.98
2023-02-01T09:56:53.280Z,1.95
2023-02-01T09:59:28.707Z,2.00
2023-02-01T10:01:57.067Z,2.40
2023-02-01T10:04:25.359Z,1.60
2023-02-01T10:06:59.920Z,1.90
2023-02-01T10:09:44.733Z,1.85
2023-02-01T10:12:41.515Z,2.00
2023-02-01T10:15:26.868Z,1.73
2023-02-01T10:18:09.537Z,2.03
2023-02-01T10:20:46.103Z,1.90
2023-02-01T10:23:33.260Z,1.70
2023-02-01T10:26:06.855Z,1.80
2023-02-01T10:28:35.353Z,1.85
2023-02-01T10:31:03.797Z,1.70
2023-02-01T10:33:34.479Z,2.15
2023-02-01T10:36:05.357Z,1.50
2023-02-01T10:38:35.908Z,1.85
2023-02-01T10:41:14.640Z,1.75
2023-02-01T10:43:43.169Z,1.77
2023-02-01T10:46:11.996Z,1.88
2023-02-01T10:48:41.859Z,2.17
2023-02-01T10:51:14.334Z,2.10
2023-02-01T10:53:46.956Z,1.60
2023-02-01T10:56:16.661Z,1.45
2023-02-01T10:58:46.405Z,2.53
2023-02-01T11:01:18.960Z,1.90
2023-02-01T11:03:47.631Z,1.60
2023-02-01T11:06:20.374Z,1.52
2023-02-01T11:08:50.877Z,2.38
2023-02-01T11:11:20.698Z,1.90
2023-02-01T11:13:54.824Z,1.70
2023-02-01T11:16:23.169Z,1.92
2023-02-01T11:18:55.916Z,1.40
2023-02-01T11:21:24.289Z,1.88
2023-02-01T11:23:52.682Z,1.50
2023-02-01T11:26:25.298Z,1.70
2023-02-01T11:28:55.602Z,2.00
2023-02-01T11:31:23.954Z,1.90
2023-02-01T11:33:54.946Z,1.70
2023-02-01T11:36:27.555Z,1.38
2023-02-01T11:39:09.609Z,1.90
2023-02-01T11:41:44.535Z,1.40
2023-02-01T11:44:22.345Z,1.45
2023-02-01T11:46:53.063Z,1.60
2023-02-01T11:49:23.699Z,1.45
2023-02-01T11:52:07.565Z,1.60
2023-02-01T11:54:44.060Z,1.23
2023-02-01T11:57:29.212Z,1.52
2023-02-01T12:00:05.205Z,1.55
2023-02-01T12:02:57.140Z,2.00
2023-02-01T12:05:33.802Z,1.88
2023-02-01T12:08:24.916Z,1.23
2023-02-01T12:11:02.389Z,1.50
2023-02-01T12:13:40.433Z,1.52
2023-02-01T12:16:14.755Z,1.42
2023-02-01T12:18:54.352Z,1.33
2023-02-01T12:21:42.037Z,1.63
2023-02-01T12:27:02.444Z,1.60
2023-02-01T12:29:37.578Z,1.60
2023-02-01T12:32:28.446Z,1.30
2023-02-01T12:35:15.896Z,1.40
2023-02-01T12:37:56.592Z,1.75
2023-02-01T12:40:32.347Z,1.23
2023-02-01T12:43:05.162Z,1.63
2023-02-01T12:45:36.340Z,1.30
2023-02-01T12:48:10.711Z,2.08
2023-02-01T12:50:42.939Z,1.70
2023-02-01T12:53:14.385Z,1.58
2023-02-01T12:55:50.626Z,1.45
2023-02-01T13:00:53.768Z,1.48
2023-02-01T13:03:29.166Z,1.60
2023-02-01T13:06:00.664Z,1.50
2023-02-01T13:08:32.916Z,1.63
2023-02-01T13:11:02.619Z,1.80
2023-02-01T13:13:34.706Z,1.60
2023-02-01T13:16:10.263Z,1.27
2023-02-01T13:18:43.923Z,1.30
2023-02-01T13:21:15.014Z,1.60
2023-02-01T13:23:43.500Z,1.55
2023-02-01T13:26:11.975Z,1.30
2023-02-01T13:28:44.794Z,1.48
2023-02-01T13:31:30.750Z,1.45
2023-02-01T13:34:09.316Z,1.63
2023-02-01T13:36:49.339Z,1.38
2023-02-01T13:39:50.283Z,1.70
2023-02-01T13:42:20.851Z,1.50
2023-02-01T13:44:53.643Z,1.35
2023-02-01T13:47:29.369Z,1.80
2023-02-01T13:50:00.928Z,1.70
2023-02-01T13:52:39.635Z,1.38
2023-02-01T13:55:31.621Z,1.48
2023-02-01T13:58:19.343Z,1.77
2023-02-01T14:03:21.636Z,1.52
2023-02-01T14:06:03.491Z,1.60
2023-02-01T14:08:43.355Z,1.60
2023-02-01T14:11:39.765Z,1.45
2023-02-01T14:14:44.945Z,1.58
2023-02-01T14:17:37.877Z,1.70
2023-02-01T14:20:46.668Z,1.58
2023-02-01T14:25:46.013Z,0.80
2023-02-01T14:28:21.621Z,1.55
2023-02-01T14:30:50.050Z,1.90
2023-02-01T14:33:23.344Z,1.27
2023-02-01T14:36:07.115Z,1.60
2023-02-01T14:38:39.891Z,1.60
2023-02-01T14:41:29.135Z,1.48
2023-02-01T14:44:32.467Z,1.73
2023-02-01T14:47:36.350Z,1.88
2023-02-01T14:50:15.549Z,1.25
2023-02-01T14:52:48.586Z,1.45
2023-02-01T14:55:21.365Z,1.50
2023-02-01T14:57:51.601Z,1.40
2023-02-01T15:00:23.275Z,1.50
2023-02-01T15:02:52.018Z,1.50
2023-02-01T15:05:38.140Z,1.88
2023-02-01T15:08:09.643Z,1.88
2023-02-01T15:10:43.070Z,2.00
2023-02-01T15:13:22.540Z,1.38
2023-02-01T15:16:12.255Z,1.80
2023-02-01T15:18:40.885Z,1.40
2023-02-01T15:21:28.638Z,1.65
2023-02-01T15:24:12.327Z,1.58
2023-02-01T15:26:42.158Z,1.48
2023-02-01T15:29:14.351Z,1.98
2023-02-01T15:31:45.461Z,1.70
2023-02-01T15:34:14.016Z,1.88
2023-02-01T15:36:47.945Z,1.75
2023-02-01T15:39:26.743Z,1.30
2023-02-01T15:41:58.909Z,2.10
2023-02-01T15:44:33.033Z,1.60
2023-02-01T15:47:03.363Z,1.73
2023-02-01T15:49:32.578Z,1.67
2023-02-01T15:52:01.578Z,1.25
2023-02-01T15:54:32.010Z,1.75
2023-02-01T15:57:03.034Z,1.92
2023-02-01T15:59:34.194Z,1.33
2023-02-01T16:02:02.666Z,1.25
2023-02-01T16:04:31.806Z,1.73
2023-02-01T16:07:01.881Z,1.67
2023-02-01T16:09:38.357Z,1.85
2023-02-01T16:12:24.238Z,1.77
2023-02-01T16:14:52.684Z,1.80
2023-02-01T16:17:20.998Z,1.85
2023-02-01T16:19:49.351Z,1.35
2023-02-01T16:22:20.330Z,1.58
2023-02-01T16:24:48.661Z,1.50
2023-02-01T16:27:18.321Z,1.55
2023-02-01T16:29:46.670Z,1.33
2023-02-01T16:32:17.549Z,1.80
2023-02-01T16:34:45.959Z,1.13
2023-02-01T16:37:15.238Z,1.50
2023-02-01T16:39:43.586Z,1.70
2023-02-01T16:42:12.974Z,1.58
2023-02-01T16:44:42.692Z,1.80
2023-02-01T16:47:15.545Z,2.03
2023-02-01T16:49:46.474Z,1.77
2023-02-01T16:52:22.834Z,1.63
2023-02-01T16:54:51.180Z,2.20
2023-02-01T16:57:23.365Z,1.85
2023-02-01T16:59:53.063Z,1.77
2023-02-01T17:02:22.763Z,1.45
2023-02-01T17:04:51.224Z,1.85
2023-02-01T17:07:20.174Z,1.88
2023-02-01T17:09:48.836Z,1.85
2023-02-01T17:12:22.456Z,1.50
2023-02-01T17:14:54.443Z,1.73
2023-02-01T17:17:32.827Z,1.60
2023-02-01T17:20:05.639Z,1.20
2023-02-01T17:22:34.119Z,1.85
2023-02-01T17:25:06.947Z,1.40
2023-02-01T17:27:37.067Z,1.73
2023-02-01T17:30:10.290Z,1.58
2023-02-01T17:32:39.526Z,1.67
2023-02-01T17:35:14.543Z,1.38
2023-02-01T17:37:42.895Z,1.27
2023-02-01T17:40:13.647Z,1.50
2023-02-01T17:42:44.719Z,1.23
2023-02-01T17:45:43.751Z,1.40
2023-02-01T17:48:12.127Z,1.38
2023-02-01T17:50:40.604Z,1.20
2023-02-01T17:53:10.023Z,1.50
2023-02-01T17:55:39.618Z,1.05
2023-02-01T17:58:07.911Z,1.70
2023-02-01T18:00:38.900Z,1.52
2023-02-01T18:03:07.454Z,1.35
2023-02-01T18:05:40.163Z,1.25
2023-02-01T18:08:08.515Z,1.20
2023-02-01T18:10:37.023Z,1.20
2023-02-01T18:13:05.774Z,1.15
2023-02-01T18:15:34.294Z,1.17
2023-02-01T18:18:04.105Z,1.23
2023-02-01T18:20:36.372Z,0.85
2023-02-01T18:23:09.261Z,1.35
2023-02-01T18:25:38.678Z,1.20
2023-02-01T18:28:07.116Z,1.17
2023-02-01T18:30:37.793Z,1.45
2023-02-01T18:33:07.576Z,1.00
2023-02-01T18:35:43.251Z,1.20
2023-02-01T18:38:11.632Z,1.42
2023-02-01T18:40:43.907Z,1.15
2023-02-01T18:43:12.389Z,1.05
2023-02-01T18:45:41.593Z,1.02
2023-02-01T18:48:11.857Z,0.90
2023-02-01T18:50:41.112Z,1.00
2023-02-01T18:53:11.667Z,1.10
2023-02-01T18:55:39.975Z,1.25
2023-02-01T18:58:08.428Z,0.93
2023-02-01T19:00:36.875Z,1.02
2023-02-01T19:03:05.223Z,1.20
2023-02-01T19:05:35.748Z,1.10
2023-02-01T19:08:04.106Z,1.42
2023-02-01T19:10:32.975Z,1.70
2023-02-01T19:13:01.357Z,1.92
2023-02-01T19:15:29.723Z,1.33
2023-02-01T19:17:58.283Z,1.65
2023-02-01T19:20:27.428Z,1.98
2023-02-01T19:22:57.083Z,1.48
2023-02-01T19:25:29.724Z,1.80
2023-02-01T19:28:00.743Z,1.90
2023-02-01T19:30:29.224Z,2.15
2023-02-01T19:32:57.607Z,1.98
2023-02-01T19:35:26.252Z,1.63
2023-02-01T19:37:54.763Z,1.52
2023-02-01T19:40:26.217Z,1.85
2023-02-01T19:42:55.596Z,1.55
2023-02-01T19:45:24.394Z,1.58
2023-02-01T19:47:52.867Z,1.83
2023-02-01T19:50:22.222Z,1.73
2023-02-01T19:52:51.275Z,1.63
2023-02-01T19:55:19.659Z,1.60
2023-02-01T19:57:49.413Z,1.52
2023-02-01T20:00:21.528Z,1.83
2023-02-01T20:02:49.911Z,1.50
2023-02-01T20:05:19.037Z,1.42
2023-02-01T20:07:47.392Z,1.70
2023-02-01T20:10:15.866Z,1.50
2023-02-01T20:12:47.261Z,1.50
2023-02-01T20:15:22.047Z,1.55
2023-02-01T20:17:52.193Z,1.30
2023-02-01T20:20:20.667Z,1.75
2023-02-01T20:22:48.986Z,1.55
2023-02-01T20:25:17.431Z,1.42
2023-02-01T20:27:46.655Z,1.20
2023-02-01T20:30:19.883Z,1.70
2023-02-01T20:32:49.911Z,1.60
2023-02-01T20:35:18.506Z,1.38
2023-02-01T20:37:49.904Z,1.60
2023-02-01T20:40:18.553Z,1.55
2023-02-01T20:42:46.917Z,2.00
2023-02-01T20:45:18.533Z,1.48
2023-02-01T20:47:52.544Z,1.52
2023-02-01T20:50:21.006Z,1.88
2023-02-01T20:52:49.365Z,1.63
2023-02-01T20:55:17.805Z,1.67
2023-02-01T20:57:46.167Z,1.30
2023-02-01T21:00:15.499Z,1.50
2023-02-01T21:02:43.810Z,1.45
2023-02-01T21:05:13.499Z,1.38
2023-02-01T21:07:41.869Z,1.67
2023-02-01T21:10:12.306Z,1.45
2023-02-01T21:12:41.903Z,1.60
2023-02-01T21:15:10.798Z,1.83
2023-02-01T21:17:40.799Z,2.00
2023-02-01T21:20:10.004Z,1.65
2023-02-01T21:22:40.791Z,1.60
2023-02-01T21:25:12.445Z,1.58
2023-02-01T21:27:40.783Z,1.70
2023-02-01T21:30:10.512Z,1.30
2023-02-01T21:32:38.867Z,1.98
2023-02-01T21:35:07.655Z,1.73
2023-02-01T21:37:36.031Z,1.45
2023-02-01T21:40:09.045Z,1.92
2023-02-01T21:42:39.197Z,1.55
2023-02-01T21:45:11.228Z,1.27
2023-02-01T21:47:39.920Z,1.92
2023-02-01T21:50:15.109Z,1.80
2023-02-01T21:52:43.668Z,1.50
2023-02-01T21:55:13.624Z,1.33
2023-02-01T21:57:42.489Z,1.70
2023-02-01T22:00:13.395Z,1.90
2023-02-01T22:02:45.130Z,1.70
2023-02-01T22:05:14.742Z,1.50
2023-02-01T22:07:43.062Z,1.75
2023-02-01T22:10:13.983Z,1.80
2023-02-01T22:12:42.347Z,1.98
2023-02-01T22:15:11.534Z,1.65
2023-02-01T22:17:39.895Z,1.27
2023-02-01T22:20:12.337Z,1.63
2023-02-01T22:22:43.083Z,1.90
2023-02-01T22:25:12.920Z,1.40
2023-02-01T22:28:32.492Z,1.95
2023-02-01T22:30:34.322Z,1.05
2023-02-01T22:33:02.658Z,1.48
2023-02-01T22:35:30.963Z,1.35
2023-02-01T22:37:59.258Z,1.45
2023-02-01T22:40:28.923Z,1.92
2023-02-01T22:42:57.212Z,1.65
2023-02-01T22:45:25.854Z,1.38
2023-02-01T22:47:54.309Z,1.63
2023-02-01T22:50:22.827Z,1.27
2023-02-01T22:52:51.165Z,1.30
2023-02-01T22:55:22.068Z,1.17
2023-02-01T22:57:54.562Z,1.30
2023-02-01T23:00:24.860Z,1.23
2023-02-01T23:02:53.256Z,1.55
2023-02-01T23:05:22.132Z,1.30
2023-02-01T23:07:51.091Z,1.15
2023-02-01T23:10:21.607Z,1.20
2023-02-01T23:12:51.322Z,1.58
2023-02-01T23:15:19.801Z,1.23
2023-02-01T23:17:48.130Z,1.35
2023-02-01T23:20:17.263Z,1.38
2023-02-01T23:22:47.863Z,0.80
2023-02-01T23:25:19.399Z,1.65
2023-02-01T23:27:48.740Z,1.65
2023-02-01T23:30:18.666Z,1.52
2023-02-01T23:32:47.027Z,1.70
2023-02-01T23:35:15.502Z,1.33
2023-02-01T23:37:43.906Z,1.55
2023-02-01T23:40:13.470Z,1.00
2023-02-01T23:43:02.256Z,1.40
2023-02-01T23:45:31.922Z,1.10
2023-02-01T23:48:00.205Z,1.23
2023-02-01T23:50:30.050Z,1.20
2023-02-01T23:52:58.394Z,1.35
2023-02-01T23:55:28.503Z,1.40
2023-02-01T23:57:56.805Z,1.88
